Here is the Quick Look data you requested

The Data originates at the National Weather Service, and is made available here by the UAlbany Department of Atmospheric and Environmental Sciences

Surface Observations

KCBE 251800Z AUTO 04004KT 10SM -RA BKN037 OVC065 14/10 A2994 RMK AO2 T01370099=
KCBE 251820Z AUTO 01006KT 10SM -RA SCT039 OVC065 13/10 A2994 RMK AO2 T01350103=
KFDK 251755Z 36003KT 10SM BKN085 22/09 A2992=
KILG 251751Z 06005KT 10SM FEW080 SCT110 18/10 A2994 RMK AO2 SLP136 60000
 T01830100 10183 20139 58007=
KTHV 251753Z AUTO 00000KT 10SM -RA SCT065 BKN080 OVC110 17/08 A2992 RMK AO2
 RAE03B52 SLP133 P0000 60000 T01670083 10172 20133 56006=
KCXY 251756Z 12006KT 10SM OVC050 16/08 A2993 RMK AO2 SLP135 60000 T01610078
 10167 20133 56007=
KAOO 251753Z AUTO 21005KT 10SM -RA OVC026 15/07 A2990 RMK AO2 RAE13B38 SLP124
 P0000 60002 T01500072 10150 20106 58008=
KJST 251754Z AUTO 19006KT 10SM -RA FEW047 BKN070 OVC090 14/11 A2988 RMK AO2
 RAB09 SLP117 P0001 60005 T01390111 10139 20089 58011=
KDCA 251752Z 14004KT 10SM BKN050 BKN140 OVC200 22/07 A2989 RMK AO2 SLP122
 T02220067 10228 20178 56015=
KIAD 251752Z 17006KT 10SM SCT048 BKN095 BKN160 23/06 A2988 RMK AO2 SLP117
 T02280056 10228 20156 58013=
KOKV 251755Z AUTO 13004KT 10SM CLR 20/07 A2989 RMK AO2=
KMRB 251753Z 07003KT 10SM CLR 21/06 A2987 RMK AO2 SLP113 T02060061 10206 20133
 58016=
KMGW 251753Z 14006KT 10SM FEW033 BKN075 OVC090 18/16 A2985 RMK AO2 RAE03B11E46
 SLP104 P0000 60013 T01780156 10178 20106 58022=
KADW 251756Z AUTO 05003KT 10SM FEW050 SCT130 BKN160 BKN200 21/08 A2988 RMK AO2
 SLP124 60000 T02080081 10208 20158 55014 $=
KAPG 251749Z 06008KT 7SM BKN080 BKN150 19/08 A2993 RMK SLPNO 58008 $=
KBWI 251754Z 09007KT 10SM FEW110 SCT160 BKN250 21/08 A2990 RMK AO2 SLP123
 T02110083 10217 20167 56014=
KDMH 251754Z AUTO 21/07 A2991 RMK AO1 SLP128 T02060072 10217 20172 56012=
KFME 251800Z AUTO 10004KT 10SM SCT050 21/07 A2992 RMK AO1=
KHGR 251753Z 03005KT 10SM FEW070 FEW085 BKN110 17/08 A2990 RMK AO2 RAE03 SLP132
 P0000 60000 T01720078 10172 20144 58012=
KMTN 251745Z 09005KT 10SM BKN160 BKN250 20/11 A2993=
KNHK 251752Z 04005KT 10SM CLR 22/13 A2987 RMK AO2 SLP115 T02170133 10217 20178
 58016=
KOXB 251753Z AUTO 07006KT 10SM CLR 15/12 A2991 RMK AO2 SLP128 T01500117 10183
 20144 58012=
KSBY 251754Z 09008KT 10SM CLR 21/10 A2988 RMK AO2 SLP121 T02110100 10228 20144
 58014=